createdAt,value
2022-08-11T00:01:21.108Z,25.00
2022-08-11T00:03:53.189Z,25.00
2022-08-11T00:06:29.685Z,25.00
2022-08-11T00:08:57.443Z,25.00
2022-08-11T00:11:38.887Z,25.00
2022-08-11T00:14:24.123Z,24.90
2022-08-11T00:17:10.786Z,24.90
2022-08-11T00:20:14.732Z,24.90
2022-08-11T00:22:31.069Z,24.90
2022-08-11T00:25:02.634Z,24.90
2022-08-11T00:27:38.281Z,24.80
2022-08-11T00:30:10.676Z,24.80
2022-08-11T00:32:39.076Z,24.80
2022-08-11T00:35:53.664Z,24.70
2022-08-11T00:37:59.849Z,24.70
2022-08-11T00:40:59.434Z,24.60
2022-08-11T00:43:29.112Z,24.60
2022-08-11T00:46:05.019Z,24.50
2022-08-11T00:48:34.823Z,24.40
2022-08-11T00:51:10.353Z,24.30
2022-08-11T00:54:01.238Z,24.30
2022-08-11T00:56:50.429Z,24.20
2022-08-11T00:59:38.266Z,24.10
2022-08-11T01:02:37.672Z,24.10
2022-08-11T01:05:30.550Z,24.10
2022-08-11T01:08:01.181Z,24.00
2022-08-11T01:10:51.087Z,23.90
2022-08-11T01:14:08.065Z,23.90
2022-08-11T01:16:59.498Z,23.80
2022-08-11T01:20:45.684Z,23.70
2022-08-11T01:22:37.862Z,23.60
2022-08-11T01:25:23.034Z,23.60
2022-08-11T01:28:27.802Z,23.50
2022-08-11T01:31:29.273Z,23.40
2022-08-11T01:34:15.946Z,23.40
2022-08-11T01:36:58.917Z,23.30
2022-08-11T01:39:56.058Z,23.20
2022-08-11T01:43:09.143Z,23.20
2022-08-11T01:45:49.076Z,23.20
2022-08-11T01:48:34.544Z,23.10
2022-08-11T01:51:45.092Z,23.10
2022-08-11T01:54:40.439Z,23.10
2022-08-11T01:57:13.073Z,23.00
2022-08-11T01:59:51.293Z,22.90
2022-08-11T02:02:47.529Z,22.90
2022-08-11T02:05:36.281Z,22.90
2022-08-11T02:08:19.693Z,22.80
2022-08-11T02:11:30.400Z,22.80
2022-08-11T02:14:22.400Z,22.70
2022-08-11T02:16:53.309Z,22.60
2022-08-11T02:20:13.649Z,22.60
2022-08-11T02:24:04.912Z,22.70
2022-08-11T02:26:26.835Z,22.60
2022-08-11T02:29:14.613Z,22.60
2022-08-11T02:32:28.903Z,22.60
2022-08-11T02:35:42.844Z,22.50
2022-08-11T02:39:00.816Z,22.50
2022-08-11T02:42:07.348Z,22.40
2022-08-11T02:45:23.035Z,22.40
2022-08-11T02:48:25.068Z,22.40
2022-08-11T02:51:01.029Z,22.30
2022-08-11T02:53:37.436Z,22.30
2022-08-11T02:56:17.973Z,22.20
2022-08-11T02:59:27.154Z,22.20
2022-08-11T03:02:18.416Z,22.20
2022-08-11T03:05:13.664Z,22.20
2022-08-11T03:07:40.383Z,22.10
2022-08-11T03:11:08.343Z,22.10
2022-08-11T03:13:59.920Z,22.10
2022-08-11T03:16:48.198Z,22.00
2022-08-11T03:19:33.624Z,22.00
2022-08-11T03:22:19.177Z,21.90
2022-08-11T03:25:15.682Z,21.90
2022-08-11T03:28:20.838Z,21.90
2022-08-11T03:30:56.841Z,21.80
2022-08-11T03:33:44.548Z,21.80
2022-08-11T03:36:17.135Z,21.70
2022-08-11T03:38:55.720Z,21.70
2022-08-11T03:42:02.026Z,21.60
2022-08-11T03:44:40.524Z,21.60
2022-08-11T03:47:29.956Z,21.60
2022-08-11T03:50:20.072Z,21.50
2022-08-11T03:52:53.758Z,21.50
2022-08-11T03:55:38.848Z,21.50
2022-08-11T03:58:31.986Z,21.40
2022-08-11T04:01:26.498Z,21.40
2022-08-11T04:04:50.704Z,21.40
2022-08-11T04:07:42.609Z,21.30
2022-08-11T04:10:59.765Z,21.30
2022-08-11T04:13:29.199Z,21.30
2022-08-11T04:16:21.770Z,21.20
2022-08-11T04:18:54.211Z,21.20
2022-08-11T04:21:49.783Z,21.20
2022-08-11T04:24:35.148Z,21.20
2022-08-11T04:27:41.142Z,21.10
2022-08-11T04:30:14.851Z,21.10
2022-08-11T04:33:09.520Z,21.10
2022-08-11T04:35:57.500Z,21.10
2022-08-11T04:39:00.023Z,21.10
2022-08-11T04:42:10.704Z,21.10
2022-08-11T04:45:05.384Z,21.00
2022-08-11T04:48:40.265Z,21.10
2022-08-11T04:51:44.052Z,21.10
2022-08-11T04:54:38.062Z,21.10
2022-08-11T04:57:33.138Z,21.00
2022-08-11T05:00:30.698Z,21.10
2022-08-11T05:03:06.081Z,21.00
2022-08-11T05:06:03.389Z,21.10
2022-08-11T05:08:52.765Z,21.00
2022-08-11T05:11:40.599Z,21.00
2022-08-11T05:14:59.577Z,21.10
2022-08-11T05:18:15.746Z,21.10
2022-08-11T05:21:12.507Z,21.10
2022-08-11T05:24:02.439Z,21.10
2022-08-11T05:26:55.463Z,21.10
2022-08-11T05:29:58.607Z,21.20
2022-08-11T05:32:48.677Z,21.20
2022-08-11T05:36:00.537Z,21.30
2022-08-11T05:38:39.798Z,21.30
2022-08-11T05:41:26.291Z,21.30
2022-08-11T05:44:20.234Z,21.40
2022-08-11T05:47:08.930Z,21.40
2022-08-11T05:49:57.884Z,21.50
2022-08-11T05:52:56.545Z,21.60
2022-08-11T05:55:53.986Z,21.60
2022-08-11T05:58:57.193Z,21.60
2022-08-11T06:01:32.035Z,21.80
2022-08-11T06:04:14.669Z,21.80
2022-08-11T06:07:02.956Z,21.80
2022-08-11T06:09:46.897Z,21.90
2022-08-11T06:12:21.883Z,22.00
2022-08-11T06:14:53.800Z,22.00
2022-08-11T06:17:26.285Z,22.10
2022-08-11T06:20:13.069Z,22.10
2022-08-11T06:22:43.717Z,22.20
2022-08-11T06:25:12.434Z,22.30
2022-08-11T06:27:41.854Z,22.30
2022-08-11T06:30:13.984Z,22.40
2022-08-11T06:32:45.916Z,22.40
2022-08-11T06:35:23.601Z,22.50
2022-08-11T06:37:59.146Z,22.60
2022-08-11T06:40:42.021Z,22.60
2022-08-11T06:43:23.639Z,22.70
2022-08-11T06:46:08.104Z,22.80
2022-08-11T06:48:39.245Z,22.80
2022-08-11T06:51:12.808Z,22.90
2022-08-11T06:54:03.017Z,23.00
2022-08-11T06:57:12.580Z,23.10
2022-08-11T07:00:02.596Z,23.20
2022-08-11T07:02:37.245Z,23.30
2022-08-11T07:05:17.430Z,23.40
2022-08-11T07:08:34.853Z,23.40
2022-08-11T07:11:44.048Z,23.50
2022-08-11T07:14:33.879Z,23.50
2022-08-11T07:17:05.469Z,23.60
2022-08-11T07:19:50.821Z,23.60
2022-08-11T07:22:44.804Z,23.70
2022-08-11T07:25:33.718Z,23.70
2022-08-11T07:28:23.138Z,23.80
2022-08-11T07:30:58.481Z,23.80
2022-08-11T07:34:07.042Z,23.90
2022-08-11T07:36:44.613Z,24.00
2022-08-11T07:39:20.990Z,24.10
2022-08-11T07:41:49.850Z,24.10
2022-08-11T07:44:17.909Z,24.20
2022-08-11T07:47:08.724Z,24.20
2022-08-11T07:49:56.619Z,24.30
2022-08-11T07:52:30.880Z,24.30
2022-08-11T07:55:03.955Z,24.40
2022-08-11T07:58:14.210Z,24.40
2022-08-11T08:01:01.278Z,24.50
2022-08-11T08:03:54.360Z,24.60
2022-08-11T08:06:41.012Z,24.70
2022-08-11T08:09:27.530Z,24.80
2022-08-11T08:12:13.916Z,24.80
2022-08-11T08:14:59.492Z,24.80
2022-08-11T08:18:09.915Z,24.90
2022-08-11T08:20:37.949Z,25.10
2022-08-11T08:23:05.971Z,25.10
2022-08-11T08:25:35.494Z,25.10
2022-08-11T08:28:06.214Z,25.20
2022-08-11T08:30:49.801Z,25.20
2022-08-11T08:33:21.516Z,25.30
2022-08-11T08:35:54.192Z,25.60
2022-08-11T08:38:23.092Z,25.40
2022-08-11T08:40:55.807Z,25.40
2022-08-11T08:43:24.438Z,25.50
2022-08-11T08:45:55.393Z,25.50
2022-08-11T08:48:25.883Z,25.60
2022-08-11T08:51:21.989Z,25.70
2022-08-11T08:53:53.783Z,25.80
2022-08-11T08:56:30.523Z,25.80
2022-08-11T08:59:00.386Z,25.90
2022-08-11T09:01:31.219Z,25.90
2022-08-11T09:04:05.098Z,26.00
2022-08-11T09:06:35.569Z,26.10
2022-08-11T09:09:02.757Z,26.10
2022-08-11T09:11:48.011Z,26.20
2022-08-11T09:14:15.653Z,26.20
2022-08-11T09:16:43.813Z,26.30
2022-08-11T09:19:13.846Z,26.30
2022-08-11T09:22:12.382Z,26.30
2022-08-11T09:24:59.096Z,26.40
2022-08-11T09:27:27.409Z,26.50
2022-08-11T09:29:55.748Z,26.50
2022-08-11T09:32:23.571Z,26.60
2022-08-11T09:34:52.163Z,26.60
2022-08-11T09:37:54.295Z,26.60
2022-08-11T09:40:30.503Z,26.70
2022-08-11T09:43:23.552Z,26.80
2022-08-11T09:45:52.527Z,26.90
2022-08-11T09:48:28.140Z,26.90
2022-08-11T09:51:00.401Z,26.90
2022-08-11T09:53:37.140Z,27.00
2022-08-11T09:56:35.346Z,27.00
2022-08-11T09:59:04.503Z,27.10
2022-08-11T10:01:34.887Z,27.20
2022-08-11T10:04:11.646Z,27.20
2022-08-11T10:06:58.396Z,27.30
2022-08-11T10:09:26.475Z,27.40
2022-08-11T10:11:58.475Z,27.40
2022-08-11T10:14:45.923Z,27.50
2022-08-11T10:17:14.943Z,27.60
2022-08-11T10:19:45.603Z,27.60
2022-08-11T10:22:50.903Z,27.60
2022-08-11T10:25:36.187Z,27.70
2022-08-11T10:28:17.182Z,27.80
2022-08-11T10:31:13.778Z,27.80
2022-08-11T10:34:01.920Z,27.90
2022-08-11T10:36:50.737Z,28.00
2022-08-11T10:39:22.019Z,28.00
2022-08-11T10:42:12.297Z,28.10
2022-08-11T10:44:44.588Z,28.20
2022-08-11T10:47:34.533Z,28.30
2022-08-11T10:50:28.385Z,28.40
2022-08-11T10:53:16.416Z,28.50
2022-08-11T10:58:48.408Z,28.60
2022-08-11T11:01:24.334Z,28.70
2022-08-11T11:03:52.730Z,28.80
2022-08-11T11:06:50.702Z,28.90
2022-08-11T11:09:24.239Z,29.10
2022-08-11T11:12:15.217Z,29.20
2022-08-11T11:15:02.082Z,29.30
2022-08-11T11:17:52.016Z,29.40
2022-08-11T11:20:47.465Z,29.60
2022-08-11T11:23:25.451Z,29.70
2022-08-11T11:26:11.382Z,29.80
2022-08-11T11:28:47.216Z,29.90
2022-08-11T11:31:42.752Z,29.90
2022-08-11T11:34:28.367Z,30.10
2022-08-11T11:37:00.753Z,30.10
2022-08-11T11:39:30.310Z,30.20
2022-08-11T11:42:04.265Z,30.30
2022-08-11T11:44:33.132Z,30.30
2022-08-11T11:47:01.386Z,30.50
2022-08-11T11:49:30.042Z,30.60
2022-08-11T11:51:59.275Z,30.60
2022-08-11T11:54:30.136Z,30.80
2022-08-11T11:57:18.764Z,30.90
2022-08-11T12:00:04.638Z,31.00
2022-08-11T12:02:31.619Z,31.10
2022-08-11T12:04:58.827Z,31.10
2022-08-11T12:08:04.953Z,31.20
2022-08-11T12:10:39.071Z,31.30
2022-08-11T12:13:25.143Z,31.40
2022-08-11T12:16:31.875Z,31.50
2022-08-11T12:18:42.800Z,31.50
2022-08-11T12:21:11.459Z,31.70
2022-08-11T12:24:04.098Z,31.80
2022-08-11T12:27:15.128Z,31.80
2022-08-11T12:29:41.170Z,31.90
2022-08-11T12:32:11.383Z,32.10
2022-08-11T12:34:38.207Z,32.20
2022-08-11T12:37:10.765Z,32.30
2022-08-11T12:40:10.837Z,32.40
2022-08-11T12:43:08.290Z,32.50
2022-08-11T12:45:48.839Z,32.70
2022-08-11T12:49:00.306Z,32.70
2022-08-11T12:52:12.110Z,32.70
2022-08-11T12:54:49.807Z,32.80
2022-08-11T12:57:42.902Z,33.00
2022-08-11T13:00:29.097Z,33.10
2022-08-11T13:03:14.640Z,33.10
2022-08-11T13:05:44.927Z,33.30
2022-08-11T13:08:15.298Z,33.30
2022-08-11T13:11:02.053Z,33.40
2022-08-11T13:13:54.623Z,33.40
2022-08-11T13:16:17.697Z,33.30
2022-08-11T13:18:45.071Z,33.40
2022-08-11T13:21:20.603Z,33.60
2022-08-11T13:23:59.728Z,33.80
2022-08-11T13:26:47.330Z,34.00
2022-08-11T13:29:26.388Z,34.10
2022-08-11T13:31:55.882Z,34.10
2022-08-11T13:34:26.791Z,34.10
2022-08-11T13:36:57.022Z,34.20
2022-08-11T13:39:26.520Z,34.30
2022-08-11T13:41:59.397Z,34.40
2022-08-11T13:44:28.812Z,34.40
2022-08-11T13:47:02.455Z,34.40
2022-08-11T13:49:31.077Z,34.40
2022-08-11T13:51:59.052Z,34.40
2022-08-11T13:54:31.622Z,34.50
2022-08-11T13:57:03.201Z,34.60
2022-08-11T13:59:39.524Z,34.80
2022-08-11T14:02:29.393Z,34.80
2022-08-11T14:05:17.614Z,34.80
2022-08-11T14:07:59.751Z,34.80
2022-08-11T14:10:30.131Z,34.80
2022-08-11T14:13:21.170Z,34.80
2022-08-11T14:15:50.024Z,34.80
2022-08-11T14:18:23.644Z,34.70
2022-08-11T14:21:14.794Z,34.80
2022-08-11T14:23:44.953Z,34.90
2022-08-11T14:26:28.196Z,34.80
2022-08-11T14:29:00.509Z,34.80
2022-08-11T14:31:30.187Z,34.80
2022-08-11T14:34:02.085Z,34.80
2022-08-11T14:36:35.165Z,34.70
2022-08-11T14:39:05.816Z,34.70
2022-08-11T14:42:09.835Z,34.70
2022-08-11T14:44:59.688Z,34.70
2022-08-11T14:47:29.996Z,34.80
2022-08-11T14:50:10.209Z,34.80
2022-08-11T14:52:59.584Z,34.70
2022-08-11T14:55:47.840Z,34.70
2022-08-11T14:58:20.229Z,34.80
2022-08-11T15:00:50.227Z,34.80
2022-08-11T15:03:17.816Z,34.80
2022-08-11T15:05:58.424Z,34.70
2022-08-11T15:08:56.853Z,34.60
2022-08-11T15:11:49.546Z,34.60
2022-08-11T15:14:41.435Z,34.60
2022-08-11T15:17:10.130Z,34.60
2022-08-11T15:19:59.630Z,34.50
2022-08-11T15:22:45.060Z,34.40
2022-08-11T15:25:12.394Z,34.30
2022-08-11T15:27:59.645Z,34.20
2022-08-11T15:30:47.269Z,34.10
2022-08-11T15:33:35.593Z,34.00
2022-08-11T15:36:25.460Z,34.10
2022-08-11T15:38:59.459Z,34.10
2022-08-11T15:41:59.038Z,34.10
2022-08-11T15:45:04.886Z,34.10
2022-08-11T15:47:44.490Z,34.00
2022-08-11T15:50:19.643Z,33.90
2022-08-11T15:53:17.357Z,33.80
2022-08-11T15:55:45.108Z,33.70
2022-08-11T15:58:31.747Z,33.80
2022-08-11T16:01:19.166Z,33.80
2022-08-11T16:04:12.544Z,33.70
2022-08-11T16:06:47.486Z,33.60
2022-08-11T16:09:19.112Z,33.60
2022-08-11T16:11:48.181Z,33.50
2022-08-11T16:14:35.899Z,33.60
2022-08-11T16:17:04.582Z,33.50
2022-08-11T16:19:36.030Z,33.40
2022-08-11T16:22:10.321Z,33.40
2022-08-11T16:27:03.578Z,33.30
2022-08-11T16:27:35.370Z,33.20
2022-08-11T16:30:03.773Z,33.10
2022-08-11T16:32:32.119Z,33.00
2022-08-11T16:35:24.895Z,32.80
2022-08-11T16:38:12.365Z,32.90
2022-08-11T16:40:41.587Z,32.80
2022-08-11T16:43:32.041Z,32.70
2022-08-11T16:46:19.614Z,32.80
2022-08-11T16:48:48.648Z,32.70
2022-08-11T16:51:16.267Z,32.80
2022-08-11T16:53:59.607Z,32.70
2022-08-11T16:56:43.225Z,32.60
2022-08-11T16:59:16.970Z,32.60
2022-08-11T17:02:08.424Z,32.50
2022-08-11T17:05:09.533Z,32.40
2022-08-11T17:07:58.165Z,32.30
2022-08-11T17:10:55.431Z,32.20
2022-08-11T17:13:32.234Z,32.10
2022-08-11T17:16:09.367Z,32.00
2022-08-11T17:18:59.843Z,31.90
2022-08-11T17:21:29.842Z,31.70
2022-08-11T17:24:10.294Z,31.60
2022-08-11T17:26:55.647Z,31.60
2022-08-11T17:29:53.856Z,31.60
2022-08-11T17:33:00.635Z,31.50
2022-08-11T17:35:38.686Z,31.40
2022-08-11T17:38:10.263Z,31.30
2022-08-11T17:41:05.203Z,31.30
2022-08-11T17:43:51.746Z,31.30
2022-08-11T17:46:38.260Z,31.20
2022-08-11T17:49:08.568Z,31.10
2022-08-11T17:51:55.932Z,31.10
2022-08-11T17:54:42.820Z,31.00
2022-08-11T17:57:30.086Z,30.90
2022-08-11T17:59:58.607Z,30.90
2022-08-11T18:02:57.909Z,30.80
2022-08-11T18:05:49.232Z,30.80
2022-08-11T18:08:37.973Z,30.80
2022-08-11T18:12:07.127Z,30.80
2022-08-11T18:14:33.101Z,30.70
2022-08-11T18:17:18.543Z,30.70
2022-08-11T18:20:04.161Z,30.70
2022-08-11T18:22:57.412Z,30.60
2022-08-11T18:25:49.304Z,30.60
2022-08-11T18:28:40.265Z,30.60
2022-08-11T18:31:30.216Z,30.50
2022-08-11T18:34:19.735Z,30.50
2022-08-11T18:37:25.986Z,30.40
2022-08-11T18:40:24.036Z,30.30
2022-08-11T18:43:11.489Z,30.30
2022-08-11T18:46:06.525Z,30.20
2022-08-11T18:48:56.485Z,30.10
2022-08-11T18:51:44.390Z,30.00
2022-08-11T18:54:32.516Z,29.80
2022-08-11T18:57:22.509Z,29.70
2022-08-11T19:00:10.444Z,29.60
2022-08-11T19:02:58.521Z,29.60
2022-08-11T19:06:32.595Z,29.40
2022-08-11T19:08:58.123Z,29.30
2022-08-11T19:11:45.129Z,29.20
2022-08-11T19:14:32.195Z,29.10
2022-08-11T19:17:44.141Z,29.00
2022-08-11T19:20:32.558Z,28.80
2022-08-11T19:23:18.414Z,28.80
2022-08-11T19:26:05.886Z,28.70
2022-08-11T19:28:53.051Z,28.70
2022-08-11T19:31:44.341Z,28.60
2022-08-11T19:34:34.315Z,28.60
2022-08-11T19:37:24.622Z,28.50
2022-08-11T19:40:16.795Z,28.40
2022-08-11T19:43:03.465Z,28.20
2022-08-11T19:45:52.663Z,28.20
2022-08-11T19:48:41.276Z,28.10
2022-08-11T19:51:28.900Z,28.10
2022-08-11T19:54:15.504Z,28.00
2022-08-11T19:57:03.089Z,28.00
2022-08-11T19:59:50.373Z,27.90
2022-08-11T20:02:36.337Z,28.00
2022-08-11T20:05:23.442Z,28.00
2022-08-11T20:08:09.568Z,27.90
2022-08-11T20:10:56.415Z,27.80
2022-08-11T20:13:44.668Z,27.60
2022-08-11T20:16:33.394Z,27.40
2022-08-11T20:19:25.994Z,27.40
2022-08-11T20:22:26.691Z,27.30
2022-08-11T20:25:13.470Z,27.20
2022-08-11T20:28:02.051Z,27.10
2022-08-11T20:30:51.828Z,27.20
2022-08-11T20:33:39.551Z,27.20
2022-08-11T20:36:26.113Z,27.20
2022-08-11T20:39:13.459Z,27.10
2022-08-11T20:42:00.500Z,27.00
2022-08-11T20:44:47.482Z,27.00
2022-08-11T20:47:56.076Z,26.90
2022-08-11T20:53:52.235Z,26.80
2022-08-11T20:56:39.697Z,26.80
2022-08-11T20:59:27.136Z,26.80
2022-08-11T21:02:14.261Z,26.80
2022-08-11T21:05:00.199Z,26.70
2022-08-11T21:10:59.405Z,26.50
2022-08-11T21:13:48.260Z,26.50
2022-08-11T21:16:42.226Z,26.50
2022-08-11T21:20:00.793Z,26.50
2022-08-11T21:22:59.417Z,26.50
2022-08-11T21:25:59.353Z,26.60
2022-08-11T21:28:46.949Z,26.50
2022-08-11T21:31:34.051Z,26.60
2022-08-11T21:34:21.661Z,26.60
2022-08-11T21:37:08.626Z,26.60
2022-08-11T21:39:55.178Z,26.70
2022-08-11T21:42:42.529Z,26.60
2022-08-11T21:45:29.004Z,26.60
2022-08-11T21:48:15.563Z,26.50
2022-08-11T21:51:00.820Z,26.50
2022-08-11T21:53:46.749Z,26.50
2022-08-11T21:56:33.483Z,26.40
2022-08-11T21:59:20.455Z,26.40
2022-08-11T22:02:12.446Z,26.40
2022-08-11T22:04:59.814Z,26.30
2022-08-11T22:07:45.875Z,26.30
2022-08-11T22:10:41.834Z,26.30
2022-08-11T22:13:31.899Z,26.30
2022-08-11T22:16:18.839Z,26.30
2022-08-11T22:19:05.901Z,26.20
2022-08-11T22:22:00.997Z,26.10
2022-08-11T22:24:51.275Z,26.00
2022-08-11T22:27:36.765Z,26.10
2022-08-11T22:30:24.419Z,26.10
2022-08-11T22:33:11.045Z,26.20
2022-08-11T22:35:59.488Z,26.20
2022-08-11T22:38:46.081Z,26.10
2022-08-11T22:41:31.728Z,26.10
2022-08-11T22:44:17.534Z,26.10
2022-08-11T22:47:03.594Z,26.00
2022-08-11T22:49:57.672Z,25.90
2022-08-11T22:52:45.173Z,26.00
2022-08-11T22:55:31.385Z,25.90
2022-08-11T22:58:17.278Z,26.00
2022-08-11T23:01:03.283Z,26.00
2022-08-11T23:03:50.147Z,26.00
2022-08-11T23:06:38.134Z,26.10
2022-08-11T23:09:25.252Z,26.10
2022-08-11T23:12:11.787Z,26.10
2022-08-11T23:14:59.580Z,26.10
2022-08-11T23:17:46.568Z,26.10
2022-08-11T23:20:43.149Z,26.10
2022-08-11T23:23:33.689Z,26.00
2022-08-11T23:26:19.530Z,25.90
2022-08-11T23:29:06.273Z,25.90
2022-08-11T23:31:55.054Z,25.90
2022-08-11T23:35:04.162Z,25.90
2022-08-11T23:37:52.997Z,25.90
2022-08-11T23:40:38.559Z,26.00
2022-08-11T23:43:24.158Z,25.90
2022-08-11T23:46:09.690Z,26.00
2022-08-11T23:48:57.765Z,25.90
2022-08-11T23:51:45.151Z,25.80
2022-08-11T23:54:36.950Z,25.80
2022-08-11T23:57:23.659Z,25.70
